createdAt,value
2023-02-27T00:08:41.145Z,5.28
2023-02-27T00:18:43.653Z,3.10
2023-02-27T00:28:46.160Z,8.00
2023-02-27T00:38:48.841Z,5.75
2023-02-27T00:48:51.753Z,6.60
2023-02-27T00:58:54.417Z,4.50
2023-02-27T01:08:57.704Z,5.90
2023-02-27T01:19:00.560Z,6.37
2023-02-27T01:29:04.671Z,6.00
2023-02-27T01:39:08.603Z,5.47
2023-02-27T01:49:17.771Z,6.85
2023-02-27T01:59:21.710Z,6.87
2023-02-27T02:09:27.235Z,8.73
2023-02-27T02:19:55.503Z,5.18
2023-02-27T02:30:18.470Z,9.57
2023-02-27T02:40:31.958Z,6.53
2023-02-27T02:50:47.173Z,5.45
2023-02-27T03:00:57.757Z,6.30
2023-02-27T03:11:04.182Z,4.73
2023-02-27T03:21:22.766Z,5.30
2023-02-27T03:31:31.475Z,5.75
2023-02-27T03:41:49.946Z,5.70
2023-02-27T03:52:06.112Z,6.57
2023-02-27T04:02:09.740Z,6.95
2023-02-27T04:12:25.675Z,5.23
2023-02-27T04:22:55.677Z,7.73
2023-02-27T04:33:09.614Z,6.03
2023-02-27T04:43:14.939Z,6.67
2023-02-27T04:53:25.643Z,6.97
2023-02-27T05:03:34.559Z,6.75
2023-02-27T05:13:57.646Z,4.80
2023-02-27T05:24:34.261Z,7.40
2023-02-27T05:34:44.046Z,7.70
2023-02-27T05:44:54.280Z,13.70
2023-02-27T05:54:59.693Z,7.77
2023-02-27T06:05:02.394Z,4.53
2023-02-27T06:15:05.424Z,12.27
2023-02-27T06:25:08.754Z,6.30
2023-02-27T06:35:16.068Z,5.60
2023-02-27T06:45:18.933Z,9.30
2023-02-27T06:55:22.769Z,8.23
2023-02-27T07:05:26.049Z,6.20
2023-02-27T07:15:29.275Z,8.23
2023-02-27T07:25:33.156Z,8.65
2023-02-27T07:35:38.046Z,6.60
2023-02-27T07:45:40.916Z,6.87
2023-02-27T07:55:43.760Z,4.35
2023-02-27T08:05:46.568Z,6.80
2023-02-27T08:15:49.281Z,6.30
2023-02-27T08:25:51.942Z,4.97
2023-02-27T08:35:55.796Z,9.70
2023-02-27T08:46:04.230Z,7.07
2023-02-27T08:56:07.081Z,7.60
2023-02-27T09:06:09.774Z,5.55
2023-02-27T09:16:13.675Z,3.80
2023-02-27T09:26:17.219Z,4.43
2023-02-27T09:36:19.771Z,5.90
2023-02-27T09:46:25.651Z,8.03
2023-02-27T09:56:46.499Z,6.87
2023-02-27T10:06:55.031Z,7.97
2023-02-27T10:16:59.718Z,5.53
2023-02-27T10:27:05.846Z,6.10
2023-02-27T10:37:14.575Z,7.53
2023-02-27T10:47:17.214Z,8.75
2023-02-27T10:57:33.743Z,8.43
2023-02-27T11:07:39.816Z,5.77
2023-02-27T11:17:43.964Z,7.97
2023-02-27T11:27:47.740Z,9.50
2023-02-27T11:37:53.165Z,6.50
2023-02-27T11:48:24.843Z,6.88
2023-02-27T11:58:35.242Z,9.90
2023-02-27T12:08:50.181Z,11.63
2023-02-27T12:19:16.330Z,9.23
2023-02-27T12:29:28.659Z,8.00
2023-02-27T12:39:32.930Z,5.20
2023-02-27T12:49:57.134Z,11.30
2023-02-27T13:00:29.536Z,7.53
2023-02-27T13:10:42.392Z,8.60
2023-02-27T13:20:53.772Z,7.20
2023-02-27T13:31:07.941Z,5.78
2023-02-27T13:41:28.807Z,4.10
2023-02-27T13:51:43.325Z,5.23
2023-02-27T14:01:56.126Z,5.87
2023-02-27T14:12:06.318Z,5.20
2023-02-27T14:22:14.048Z,7.37
2023-02-27T14:32:22.489Z,8.13
2023-02-27T14:42:41.223Z,9.00
2023-02-27T14:52:44.049Z,5.00
2023-02-27T15:02:46.596Z,6.40
2023-02-27T15:12:49.453Z,6.20
2023-02-27T15:22:52.046Z,5.50
2023-02-27T15:32:57.068Z,6.93
2023-02-27T15:43:01.313Z,7.37
2023-02-27T15:53:14.937Z,5.82
2023-02-27T16:03:23.052Z,7.40
2023-02-27T16:13:25.687Z,5.37
2023-02-27T16:23:29.876Z,5.78
2023-02-27T16:33:36.657Z,6.87
2023-02-27T16:43:39.142Z,7.57
2023-02-27T16:53:41.685Z,15.43
2023-02-27T17:03:46.058Z,11.47
2023-02-27T17:13:49.427Z,11.03
2023-02-27T17:23:55.491Z,12.50
2023-02-27T17:33:58.037Z,11.05
2023-02-27T17:44:01.813Z,6.77
2023-02-27T17:54:07.178Z,8.10
2023-02-27T18:04:11.419Z,12.35
2023-02-27T18:14:15.996Z,13.57
2023-02-27T18:24:18.862Z,7.13
2023-02-27T18:34:23.077Z,9.23
2023-02-27T18:44:28.594Z,11.60
2023-02-27T18:54:31.542Z,10.67
2023-02-27T19:04:34.191Z,8.63
2023-02-27T19:14:38.245Z,9.15
2023-02-27T19:24:41.968Z,11.17
2023-02-27T19:34:45.536Z,6.40
2023-02-27T19:44:49.083Z,7.43
2023-02-27T19:54:51.637Z,9.20
2023-02-27T20:04:54.746Z,6.77
2023-02-27T20:14:57.558Z,7.55
2023-02-27T20:25:00.435Z,17.03
2023-02-27T20:35:06.589Z,10.63
2023-02-27T20:45:10.712Z,9.43
2023-02-27T20:55:13.527Z,6.45
2023-02-27T21:05:16.138Z,12.50
2023-02-27T21:15:19.422Z,6.07
2023-02-27T21:25:23.276Z,6.72
2023-02-27T21:35:26.183Z,8.03
2023-02-27T21:45:28.687Z,17.60
2023-02-27T21:55:33.499Z,8.95
2023-02-27T22:05:40.682Z,15.73
2023-02-27T22:15:43.373Z,11.43
2023-02-27T22:25:46.058Z,8.03
2023-02-27T22:35:48.718Z,8.82
2023-02-27T22:45:51.268Z,15.33
2023-02-27T22:55:55.676Z,22.67
2023-02-27T23:05:58.874Z,20.20
2023-02-27T23:16:02.575Z,22.07
2023-02-27T23:26:06.226Z,28.60
2023-02-27T23:36:08.877Z,15.95
2023-02-27T23:46:14.923Z,10.97
2023-02-27T23:56:23.518Z,10.57
